createdAt,value
2022-11-28T00:01:26.198Z,0.97
2022-11-28T00:03:52.975Z,0.99
2022-11-28T00:06:19.914Z,0.99
2022-11-28T00:08:46.993Z,1.01
2022-11-28T00:11:15.572Z,0.97
2022-11-28T00:13:43.577Z,0.94
2022-11-28T00:16:15.121Z,0.92
2022-11-28T00:18:41.844Z,0.89
2022-11-28T00:21:11.618Z,0.86
2022-11-28T00:23:38.723Z,0.85
2022-11-28T00:26:10.286Z,0.84
2022-11-28T00:28:37.645Z,0.86
2022-11-28T00:31:04.605Z,0.90
2022-11-28T00:33:32.805Z,0.91
2022-11-28T00:36:02.110Z,0.93
2022-11-28T00:38:29.633Z,0.94
2022-11-28T00:41:07.510Z,0.94
2022-11-28T00:43:34.473Z,0.95
2022-11-28T00:46:01.166Z,0.96
2022-11-28T00:48:27.806Z,0.95
2022-11-28T00:50:55.648Z,0.97
2022-11-28T00:53:22.328Z,1.01
2022-11-28T00:55:48.863Z,1.03
2022-11-28T00:58:15.383Z,1.03
2022-11-28T01:00:42.229Z,1.03
2022-11-28T01:03:08.786Z,0.98
2022-11-28T01:05:40.758Z,0.96
2022-11-28T01:08:07.879Z,0.92
2022-11-28T01:10:34.435Z,0.88
2022-11-28T01:13:00.967Z,0.85
2022-11-28T01:15:27.720Z,0.83
2022-11-28T01:17:54.181Z,0.80
2022-11-28T01:20:20.583Z,0.79
2022-11-28T01:22:47.140Z,0.79
2022-11-28T01:25:13.682Z,0.79
2022-11-28T01:27:40.176Z,0.81
2022-11-28T01:30:07.733Z,0.82
2022-11-28T01:32:34.428Z,0.83
2022-11-28T01:35:00.966Z,0.84
2022-11-28T01:37:29.534Z,0.81
2022-11-28T01:39:56.398Z,0.81
2022-11-28T01:42:23.345Z,0.81
2022-11-28T01:44:49.707Z,0.80
2022-11-28T01:47:21.133Z,0.79
2022-11-28T01:49:49.210Z,0.79
2022-11-28T01:52:19.609Z,0.79
2022-11-28T01:54:50.900Z,0.79
2022-11-28T01:57:21.889Z,0.79
2022-11-28T01:59:56.145Z,0.79
2022-11-28T02:02:33.766Z,0.80
2022-11-28T02:05:01.335Z,0.81
2022-11-28T02:07:28.279Z,0.82
2022-11-28T02:09:55.336Z,0.83
2022-11-28T02:12:40.297Z,0.85
2022-11-28T02:15:26.959Z,0.84
2022-11-28T02:18:02.568Z,0.84
2022-11-28T02:20:52.149Z,0.84
2022-11-28T02:23:23.613Z,0.86
2022-11-28T02:26:08.732Z,0.89
2022-11-28T02:29:02.186Z,0.92
2022-11-28T02:31:56.699Z,0.95
2022-11-28T02:34:52.520Z,0.94
2022-11-28T02:37:34.797Z,0.95
2022-11-28T02:40:27.223Z,0.93
2022-11-28T02:43:05.410Z,0.90
2022-11-28T02:45:49.919Z,0.86
2022-11-28T02:48:34.695Z,0.82
2022-11-28T02:51:16.723Z,0.77
2022-11-28T02:53:46.022Z,0.74
2022-11-28T02:56:13.250Z,0.75
2022-11-28T02:58:40.296Z,0.75
2022-11-28T03:01:17.613Z,0.71
2022-11-28T03:03:53.140Z,0.69
2022-11-28T03:06:47.840Z,0.70
2022-11-28T03:09:44.242Z,0.70
2022-11-28T03:12:35.406Z,0.71
2022-11-28T03:15:05.139Z,0.69
2022-11-28T03:17:40.594Z,0.71
2022-11-28T03:20:21.051Z,0.71
2022-11-28T03:22:56.216Z,0.71
2022-11-28T03:25:44.841Z,0.69
2022-11-28T03:28:26.438Z,0.69
2022-11-28T03:30:57.545Z,0.69
2022-11-28T03:33:27.697Z,0.68
2022-11-28T03:36:09.202Z,0.66
2022-11-28T03:38:41.377Z,0.68
2022-11-28T03:41:15.113Z,0.68
2022-11-28T03:43:50.042Z,0.68
2022-11-28T03:46:20.380Z,0.69
2022-11-28T03:48:51.299Z,0.72
2022-11-28T03:51:25.552Z,0.72
2022-11-28T03:53:59.635Z,0.72
2022-11-28T03:56:41.640Z,0.72
2022-11-28T03:59:15.959Z,0.72
2022-11-28T04:01:54.800Z,0.74
2022-11-28T04:04:32.107Z,0.78
2022-11-28T04:07:18.343Z,0.79
2022-11-28T04:09:53.972Z,0.80
2022-11-28T04:12:44.856Z,0.82
2022-11-28T04:15:22.663Z,0.81
2022-11-28T04:18:00.098Z,0.82
2022-11-28T04:20:32.527Z,0.85
2022-11-28T04:23:07.284Z,0.87
2022-11-28T04:25:38.016Z,0.88
2022-11-28T04:28:15.743Z,0.88
2022-11-28T04:30:44.553Z,0.87
2022-11-28T04:33:15.382Z,0.85
2022-11-28T04:35:47.423Z,0.84
2022-11-28T04:38:14.242Z,0.84
2022-11-28T04:41:22.289Z,0.84
2022-11-28T04:44:00.195Z,0.84
2022-11-28T04:46:36.471Z,0.84
2022-11-28T04:49:03.409Z,0.85
2022-11-28T04:51:51.434Z,0.85
2022-11-28T04:54:30.904Z,0.86
2022-11-28T04:57:31.752Z,0.86
2022-11-28T05:00:01.211Z,0.88
2022-11-28T05:02:29.489Z,0.88
2022-11-28T05:04:56.082Z,0.86
2022-11-28T05:07:23.187Z,0.85
2022-11-28T05:09:50.301Z,0.85
2022-11-28T05:12:17.238Z,0.83
2022-11-28T05:14:43.860Z,0.84
2022-11-28T05:17:13.274Z,0.82
2022-11-28T05:19:39.839Z,0.80
2022-11-28T05:22:06.227Z,0.78
2022-11-28T05:24:32.649Z,0.75
2022-11-28T05:26:59.126Z,0.72
2022-11-28T05:29:25.663Z,0.70
2022-11-28T05:31:52.172Z,0.69
2022-11-28T05:34:18.712Z,0.68
2022-11-28T05:36:45.111Z,0.68
2022-11-28T05:39:11.495Z,0.67
2022-11-28T05:41:37.966Z,0.69
2022-11-28T05:44:04.403Z,0.71
2022-11-28T05:46:30.858Z,0.71
2022-11-28T05:48:57.413Z,0.71
2022-11-28T05:51:24.521Z,0.71
2022-11-28T05:53:51.088Z,0.71
2022-11-28T05:56:19.944Z,0.72
2022-11-28T05:58:46.722Z,0.76
2022-11-28T06:01:16.325Z,0.80
2022-11-28T06:03:44.138Z,0.80
2022-11-28T06:06:17.215Z,0.76
2022-11-28T06:08:44.803Z,0.74
2022-11-28T06:11:12.128Z,0.73
2022-11-28T06:13:38.882Z,0.71
2022-11-28T06:16:17.873Z,0.72
2022-11-28T06:18:45.171Z,0.72
2022-11-28T06:21:14.174Z,0.74
2022-11-28T06:23:40.865Z,0.78
2022-11-28T06:26:12.881Z,0.81
2022-11-28T06:28:40.137Z,0.82
2022-11-28T06:31:11.977Z,0.85
2022-11-28T06:33:38.989Z,0.86
2022-11-28T06:36:07.205Z,0.87
2022-11-28T06:38:34.588Z,0.88
2022-11-28T06:41:05.028Z,0.88
2022-11-28T06:43:32.187Z,0.89
2022-11-28T06:45:59.377Z,0.88
2022-11-28T06:48:26.989Z,0.91
2022-11-28T06:50:54.113Z,0.93
2022-11-28T06:53:20.898Z,0.96
2022-11-28T06:55:47.399Z,1.00
2022-11-28T06:58:13.887Z,1.03
2022-11-28T07:00:40.624Z,1.07
2022-11-28T07:03:07.137Z,1.12
2022-11-28T07:05:33.538Z,1.19
2022-11-28T07:08:00.541Z,1.26
2022-11-28T07:10:28.429Z,1.33
2022-11-28T07:13:04.896Z,1.38
2022-11-28T07:15:32.011Z,1.41
2022-11-28T07:17:58.458Z,1.44
2022-11-28T07:20:24.884Z,1.50
2022-11-28T07:22:51.356Z,1.56
2022-11-28T07:25:18.014Z,1.63
2022-11-28T07:27:44.425Z,1.71
2022-11-28T07:30:11.092Z,1.81
2022-11-28T07:32:40.717Z,1.93
2022-11-28T07:35:08.080Z,2.05
2022-11-28T07:37:34.942Z,2.16
2022-11-28T07:40:01.628Z,2.24
2022-11-28T07:42:28.194Z,2.30
2022-11-28T07:44:54.631Z,2.33
2022-11-28T07:47:21.354Z,2.39
2022-11-28T07:49:47.732Z,2.44
2022-11-28T07:52:14.256Z,2.52
2022-11-28T07:54:40.793Z,2.58
2022-11-28T07:57:14.423Z,2.67
2022-11-28T07:59:41.247Z,2.76
2022-11-28T08:02:10.736Z,2.78
2022-11-28T08:04:37.678Z,2.85
2022-11-28T08:07:04.843Z,3.00
2022-11-28T08:09:32.535Z,3.10
2022-11-28T08:11:59.150Z,3.16
2022-11-28T08:14:25.614Z,3.20
2022-11-28T08:16:52.009Z,3.22
2022-11-28T08:19:21.617Z,3.28
2022-11-28T08:21:51.524Z,3.54
2022-11-28T08:24:17.988Z,4.26
2022-11-28T08:26:44.448Z,4.82
2022-11-28T08:29:10.853Z,5.32
2022-11-28T08:31:38.614Z,5.77
2022-11-28T08:34:10.871Z,5.98
2022-11-28T08:36:37.445Z,6.28
2022-11-28T08:41:52.406Z,6.79
2022-11-28T08:44:18.880Z,6.90
2022-11-28T08:46:45.294Z,6.91
2022-11-28T08:49:11.776Z,6.95
2022-11-28T08:51:38.320Z,6.82
2022-11-28T08:54:05.041Z,6.62
2022-11-28T08:56:31.809Z,6.38
2022-11-28T08:58:58.227Z,6.25
2022-11-28T09:01:26.472Z,6.50
2022-11-28T09:03:54.779Z,6.92
2022-11-28T09:06:22.467Z,7.10
2022-11-28T09:08:50.471Z,7.13
2022-11-28T09:11:20.892Z,7.31
2022-11-28T09:13:48.156Z,7.27
2022-11-28T09:16:15.696Z,7.54
2022-11-28T09:18:42.773Z,7.67
2022-11-28T09:21:11.947Z,7.43
2022-11-28T09:23:40.331Z,6.98
2022-11-28T09:26:20.960Z,6.53
2022-11-28T09:28:47.740Z,6.16
2022-11-28T09:31:15.539Z,5.91
2022-11-28T09:33:42.693Z,5.83
2022-11-28T09:36:14.785Z,5.82
2022-11-28T09:38:41.824Z,5.80
2022-11-28T09:41:37.348Z,5.76
2022-11-28T09:44:18.535Z,5.67
2022-11-28T09:46:48.148Z,5.70
2022-11-28T09:49:25.449Z,5.81
2022-11-28T09:52:27.391Z,5.76
2022-11-28T09:55:06.745Z,5.74
2022-11-28T09:57:43.636Z,5.94
2022-11-28T10:00:38.878Z,6.12
2022-11-28T10:03:32.864Z,6.48
2022-11-28T10:06:11.651Z,6.73
2022-11-28T10:08:59.497Z,6.89
2022-11-28T10:11:52.729Z,7.12
2022-11-28T10:14:57.091Z,7.14
2022-11-28T10:17:47.422Z,7.09
2022-11-28T10:20:28.251Z,7.25
2022-11-28T10:23:13.559Z,7.40
2022-11-28T10:25:51.770Z,7.42
2022-11-28T10:28:23.739Z,7.43
2022-11-28T10:31:27.541Z,7.55
2022-11-28T10:34:02.703Z,7.58
2022-11-28T10:36:47.153Z,7.62
2022-11-28T10:39:14.304Z,7.59
2022-11-28T10:41:45.565Z,7.45
2022-11-28T10:44:38.139Z,7.34
2022-11-28T10:47:21.447Z,7.21
2022-11-28T10:49:50.889Z,7.09
2022-11-28T10:52:31.920Z,7.05
2022-11-28T10:55:32.551Z,6.99
2022-11-28T10:58:22.583Z,6.91
2022-11-28T11:00:54.129Z,6.85
2022-11-28T11:03:23.737Z,6.83
2022-11-28T11:05:50.281Z,6.86
2022-11-28T11:08:22.564Z,6.88
2022-11-28T11:11:03.027Z,6.99
2022-11-28T11:13:32.254Z,7.02
2022-11-28T11:16:02.990Z,7.05
2022-11-28T11:18:50.385Z,7.21
2022-11-28T11:21:20.421Z,7.36
2022-11-28T11:23:48.892Z,7.45
2022-11-28T11:26:32.695Z,7.41
2022-11-28T11:28:59.452Z,7.27
2022-11-28T11:31:30.227Z,7.22
2022-11-28T11:34:14.180Z,7.21
2022-11-28T11:36:41.050Z,7.19
2022-11-28T11:39:19.063Z,7.17
2022-11-28T11:41:48.952Z,7.16
2022-11-28T11:44:15.386Z,7.04
2022-11-28T11:46:51.758Z,7.00
2022-11-28T11:49:32.209Z,7.06
2022-11-28T11:52:23.048Z,7.10
2022-11-28T11:55:13.660Z,7.11
2022-11-28T11:57:46.624Z,7.12
2022-11-28T12:00:13.092Z,7.11
2022-11-28T12:02:47.619Z,7.05
2022-11-28T12:05:14.226Z,6.97
2022-11-28T12:07:59.708Z,6.93
2022-11-28T12:10:30.149Z,6.76
2022-11-28T12:12:57.016Z,6.64
2022-11-28T12:15:52.760Z,6.58
2022-11-28T12:18:37.067Z,6.60
2022-11-28T12:21:20.419Z,6.60
2022-11-28T12:24:17.666Z,6.60
2022-11-28T12:26:51.826Z,6.59
2022-11-28T12:29:39.762Z,6.61
2022-11-28T12:32:29.181Z,6.62
2022-11-28T12:35:13.958Z,6.58
2022-11-28T12:38:12.770Z,6.55
2022-11-28T12:40:51.730Z,6.47
2022-11-28T12:43:55.612Z,6.37
2022-11-28T12:46:31.830Z,6.31
2022-11-28T12:49:23.737Z,6.21
2022-11-28T12:52:28.039Z,6.02
2022-11-28T12:55:08.567Z,5.83
2022-11-28T12:57:48.539Z,5.68
2022-11-28T13:00:27.095Z,5.57
2022-11-28T13:03:20.836Z,5.48
2022-11-28T13:06:03.652Z,5.42
2022-11-28T13:08:48.507Z,5.35
2022-11-28T13:11:43.355Z,5.27
2022-11-28T13:14:15.429Z,5.18
2022-11-28T13:16:51.094Z,5.11
2022-11-28T13:19:52.436Z,5.04
2022-11-28T13:22:24.677Z,4.98
2022-11-28T13:25:35.587Z,4.93
2022-11-28T13:28:12.060Z,4.87
2022-11-28T13:30:45.508Z,4.82
2022-11-28T13:33:30.368Z,4.77
2022-11-28T13:35:59.973Z,4.70
2022-11-28T13:39:08.208Z,4.64
2022-11-28T13:42:28.309Z,4.57
2022-11-28T13:44:58.522Z,4.49
2022-11-28T13:47:32.907Z,4.40
2022-11-28T13:50:30.480Z,4.32
2022-11-28T13:53:10.423Z,4.24
2022-11-28T13:55:42.759Z,4.19
2022-11-28T13:58:40.169Z,4.16
2022-11-28T14:01:15.927Z,4.12
2022-11-28T14:03:47.789Z,4.08
2022-11-28T14:06:18.936Z,4.06
2022-11-28T14:08:47.947Z,4.06
2022-11-28T14:11:41.809Z,4.05
2022-11-28T14:14:22.803Z,4.03
2022-11-28T14:17:10.833Z,4.00
2022-11-28T14:19:58.664Z,3.94
2022-11-28T14:22:50.651Z,3.88
2022-11-28T14:25:26.320Z,3.80
2022-11-28T14:27:57.210Z,3.74
2022-11-28T14:30:31.840Z,3.68
2022-11-28T14:33:03.092Z,3.57
2022-11-28T14:35:54.561Z,3.46
2022-11-28T14:38:30.023Z,3.23
2022-11-28T14:40:56.504Z,2.99
2022-11-28T14:43:46.535Z,2.79
2022-11-28T14:46:16.297Z,2.59
2022-11-28T14:49:17.356Z,2.40
2022-11-28T14:51:49.658Z,2.19
2022-11-28T14:54:34.403Z,2.01
2022-11-28T14:57:02.166Z,1.82
2022-11-28T14:59:33.846Z,1.67
2022-11-28T15:02:12.337Z,1.52
2022-11-28T15:04:38.767Z,1.35
2022-11-28T15:07:16.965Z,1.19
2022-11-28T15:09:52.815Z,1.07
2022-11-28T15:12:40.799Z,0.94
2022-11-28T15:15:13.788Z,0.77
2022-11-28T15:17:44.129Z,0.70
2022-11-28T15:20:39.684Z,0.67
2022-11-28T15:23:35.069Z,0.59
2022-11-28T15:26:02.928Z,0.51
2022-11-28T15:28:31.243Z,0.45
2022-11-28T15:31:00.894Z,0.42
2022-11-28T15:33:28.472Z,0.38
2022-11-28T15:36:02.118Z,0.31
2022-11-28T15:38:31.194Z,0.23
2022-11-28T15:40:59.194Z,0.15
2022-11-28T15:43:26.529Z,0.08
2022-11-28T15:45:56.247Z,0.02
2022-11-28T15:48:25.758Z,-0.04
2022-11-28T15:50:52.811Z,-0.10
2022-11-28T15:53:20.884Z,-0.16
2022-11-28T15:55:48.037Z,-0.23
2022-11-28T15:58:25.539Z,-0.31
2022-11-28T16:01:02.873Z,-0.36
2022-11-28T16:03:34.796Z,-0.46
2022-11-28T16:06:02.853Z,-0.58
2022-11-28T16:08:35.454Z,-0.68
2022-11-28T16:11:05.060Z,-0.77
2022-11-28T16:13:32.467Z,-0.89
2022-11-28T16:16:01.549Z,-0.99
2022-11-28T16:18:29.404Z,-1.08
2022-11-28T16:20:58.270Z,-1.13
2022-11-28T16:23:32.795Z,-1.14
2022-11-28T16:26:19.131Z,-1.10
2022-11-28T16:28:57.866Z,-1.04
2022-11-28T16:31:27.061Z,-1.00
2022-11-28T16:33:53.992Z,-0.99
2022-11-28T16:36:36.493Z,-1.07
2022-11-28T16:39:14.351Z,-1.04
2022-11-28T16:41:43.926Z,-0.98
2022-11-28T16:44:14.264Z,-0.91
2022-11-28T16:46:58.002Z,-0.84
2022-11-28T16:49:32.513Z,-0.80
2022-11-28T16:52:23.834Z,-0.76
2022-11-28T16:54:51.509Z,-0.75
2022-11-28T16:57:18.578Z,-0.80
2022-11-28T16:59:46.126Z,-0.86
2022-11-28T17:02:16.619Z,-0.88
2022-11-28T17:04:43.996Z,-0.93
2022-11-28T17:07:16.076Z,-1.03
2022-11-28T17:09:44.486Z,-1.15
2022-11-28T17:12:14.923Z,-1.23
2022-11-28T17:14:41.545Z,-1.31
2022-11-28T17:17:16.993Z,-1.40
2022-11-28T17:19:44.199Z,-1.49
2022-11-28T17:22:16.833Z,-1.54
2022-11-28T17:24:44.466Z,-1.64
2022-11-28T17:27:14.723Z,-1.76
2022-11-28T17:29:42.143Z,-1.83
2022-11-28T17:32:13.641Z,-1.92
2022-11-28T17:34:40.781Z,-1.99
2022-11-28T17:37:08.053Z,-2.09
2022-11-28T17:39:34.759Z,-2.18
2022-11-28T17:42:01.216Z,-2.23
2022-11-28T17:44:33.800Z,-2.25
2022-11-28T17:47:02.004Z,-2.29
2022-11-28T17:49:29.585Z,-2.31
2022-11-28T17:51:56.281Z,-2.25
2022-11-28T17:54:25.202Z,-2.17
2022-11-28T17:56:52.870Z,-2.14
2022-11-28T17:59:23.993Z,-2.13
2022-11-28T18:01:50.820Z,-2.10
2022-11-28T18:04:17.711Z,-2.06
2022-11-28T18:06:45.328Z,-2.05
2022-11-28T18:09:13.292Z,-2.07
2022-11-28T18:11:43.042Z,-2.11
2022-11-28T18:14:09.745Z,-2.17
2022-11-28T18:16:36.678Z,-2.26
2022-11-28T18:19:04.322Z,-2.32
2022-11-28T18:21:31.584Z,-2.36
2022-11-28T18:23:58.057Z,-2.42
2022-11-28T18:26:25.467Z,-2.43
2022-11-28T18:28:52.439Z,-2.47
2022-11-28T18:31:24.658Z,-2.45
2022-11-28T18:33:52.935Z,-2.40
2022-11-28T18:36:24.236Z,-2.38
2022-11-28T18:39:02.271Z,-2.39
2022-11-28T18:41:30.103Z,-2.39
2022-11-28T18:43:58.491Z,-2.33
2022-11-28T18:46:26.089Z,-2.27
2022-11-28T18:48:53.515Z,-2.27
2022-11-28T18:51:26.065Z,-2.29
2022-11-28T18:53:56.225Z,-2.26
2022-11-28T18:56:23.886Z,-2.22
2022-11-28T18:58:53.140Z,-2.19
2022-11-28T19:01:31.107Z,-2.21
2022-11-28T19:04:00.324Z,-2.24
2022-11-28T19:06:27.147Z,-2.27
2022-11-28T19:08:56.572Z,-2.30
2022-11-28T19:11:23.409Z,-2.35
2022-11-28T19:13:50.764Z,-2.41
2022-11-28T19:16:20.189Z,-2.46
2022-11-28T19:18:47.015Z,-2.52
2022-11-28T19:21:16.634Z,-2.56
2022-11-28T19:23:43.774Z,-2.59
2022-11-28T19:26:12.887Z,-2.63
2022-11-28T19:28:41.463Z,-2.65
2022-11-28T19:31:13.096Z,-2.68
2022-11-28T19:33:39.663Z,-2.72
2022-11-28T19:36:08.376Z,-2.79
2022-11-28T19:38:36.598Z,-2.87
2022-11-28T19:41:14.725Z,-2.91
2022-11-28T19:43:41.797Z,-2.91
2022-11-28T19:46:09.508Z,-2.91
2022-11-28T19:48:37.514Z,-2.89
2022-11-28T19:51:05.223Z,-2.88
2022-11-28T19:53:33.059Z,-2.89
2022-11-28T19:56:18.871Z,-2.90
2022-11-28T19:58:46.000Z,-2.89
2022-11-28T20:01:24.079Z,-2.85
2022-11-28T20:03:51.501Z,-2.84
2022-11-28T20:06:23.592Z,-2.87
2022-11-28T20:08:51.466Z,-2.91
2022-11-28T20:11:23.636Z,-2.94
2022-11-28T20:13:55.265Z,-3.00
2022-11-28T20:16:21.854Z,-3.04
2022-11-28T20:18:48.644Z,-3.04
2022-11-28T20:21:19.826Z,-3.07
2022-11-28T20:23:49.505Z,-3.11
2022-11-28T20:26:18.123Z,-3.14
2022-11-28T20:28:45.569Z,-3.12
2022-11-28T20:31:30.161Z,-3.09
2022-11-28T20:33:57.702Z,-3.07
2022-11-28T20:36:25.961Z,-3.07
2022-11-28T20:38:53.516Z,-3.04
2022-11-28T20:41:21.403Z,-3.04
2022-11-28T20:43:48.762Z,-3.04
2022-11-28T20:46:21.206Z,-3.06
2022-11-28T20:48:49.626Z,-3.10
2022-11-28T20:51:22.755Z,-3.13
2022-11-28T20:53:49.258Z,-3.15
2022-11-28T20:56:24.204Z,-3.16
2022-11-28T20:58:51.366Z,-3.20
2022-11-28T21:01:23.327Z,-3.24
2022-11-28T21:03:50.670Z,-3.27
2022-11-28T21:06:17.755Z,-3.30
2022-11-28T21:08:44.563Z,-3.31
2022-11-28T21:11:43.810Z,-3.33
2022-11-28T21:14:08.831Z,-3.37
2022-11-28T21:16:35.807Z,-3.40
2022-11-28T21:19:05.750Z,-3.41
2022-11-28T21:21:34.383Z,-3.40
2022-11-28T21:24:05.062Z,-3.37
2022-11-28T21:26:37.590Z,-3.37
2022-11-28T21:29:08.892Z,-3.38
2022-11-28T21:31:39.773Z,-3.42
2022-11-28T21:34:06.479Z,-3.44
2022-11-28T21:36:33.015Z,-3.48
2022-11-28T21:39:01.300Z,-3.51
2022-11-28T21:41:32.546Z,-3.49
2022-11-28T21:44:00.217Z,-3.47
2022-11-28T21:46:27.460Z,-3.49
2022-11-28T21:48:53.968Z,-3.51
2022-11-28T21:51:22.998Z,-3.52
2022-11-28T21:53:49.646Z,-3.53
2022-11-28T21:56:16.288Z,-3.53
2022-11-28T21:58:42.864Z,-3.55
2022-11-28T22:01:12.281Z,-3.55
2022-11-28T22:03:40.457Z,-3.51
2022-11-28T22:06:08.986Z,-3.53
2022-11-28T22:08:35.812Z,-3.56
2022-11-28T22:11:06.708Z,-3.61
2022-11-28T22:13:33.267Z,-3.64
2022-11-28T22:15:59.903Z,-3.65
2022-11-28T22:18:29.551Z,-3.66
2022-11-28T22:21:12.915Z,-3.67
2022-11-28T22:23:50.894Z,-3.69
2022-11-28T22:26:17.624Z,-3.69
2022-11-28T22:28:47.884Z,-3.66
2022-11-28T22:31:20.042Z,-3.66
2022-11-28T22:33:48.547Z,-3.68
2022-11-28T22:36:17.653Z,-3.67
2022-11-28T22:38:45.538Z,-3.64
2022-11-28T22:41:19.806Z,-3.66
2022-11-28T22:43:51.271Z,-3.70
2022-11-28T22:46:17.907Z,-3.75
2022-11-28T22:48:44.617Z,-3.78
2022-11-28T22:51:15.800Z,-3.77
2022-11-28T22:53:42.493Z,-3.79
2022-11-28T22:56:12.783Z,-3.80
2022-11-28T22:58:42.849Z,-3.85
2022-11-28T23:01:15.358Z,-3.89
2022-11-28T23:03:41.863Z,-3.93
2022-11-28T23:06:14.032Z,-3.97
2022-11-28T23:08:41.594Z,-4.01
2022-11-28T23:11:17.008Z,-4.01
2022-11-28T23:13:44.794Z,-3.99
2022-11-28T23:16:24.249Z,-4.00
2022-11-28T23:18:53.307Z,-4.01
2022-11-28T23:21:21.749Z,-4.02
2022-11-28T23:23:48.709Z,-4.05
2022-11-28T23:26:20.811Z,-4.03
2022-11-28T23:28:47.811Z,-4.03
2022-11-28T23:31:23.751Z,-4.02
2022-11-28T23:33:51.693Z,-4.05
2022-11-28T23:36:24.872Z,-4.10
2022-11-28T23:38:57.226Z,-4.12
2022-11-28T23:41:24.727Z,-4.17
2022-11-28T23:43:51.223Z,-4.22
2022-11-28T23:46:19.589Z,-4.20
2022-11-28T23:48:47.071Z,-4.21
2022-11-28T23:51:15.948Z,-4.22
2022-11-28T23:53:43.515Z,-4.28
2022-11-28T23:56:19.624Z,-4.29
2022-11-28T23:58:46.627Z,-4.32
